sensor_id;sensor_type;location;lat;lon;timestamp;P1;durP1;ratioP1;P2;durP2;ratioP2
39698;SDS011;25372;50.582;12.250;2023-02-03T00:04:24;3.60;;;2.13;;
39698;SDS011;25372;50.582;12.250;2023-02-03T00:14:45;5.72;;;2.28;;
39698;SDS011;25372;50.582;12.250;2023-02-03T00:25:07;6.05;;;2.22;;
39698;SDS011;25372;50.582;12.250;2023-02-03T00:35:28;2.42;;;2.22;;
39698;SDS011;25372;50.582;12.250;2023-02-03T00:45:52;5.10;;;1.80;;
39698;SDS011;25372;50.582;12.250;2023-02-03T00:56:13;3.92;;;2.08;;
39698;SDS011;25372;50.582;12.250;2023-02-03T01:06:34;1.27;;;1.17;;
39698;SDS011;25372;50.582;12.250;2023-02-03T01:16:55;2.67;;;2.13;;
39698;SDS011;25372;50.582;12.250;2023-02-03T01:27:18;3.22;;;1.92;;
39698;SDS011;25372;50.582;12.250;2023-02-03T01:37:40;3.10;;;2.03;;
39698;SDS011;25372;50.582;12.250;2023-02-03T01:48:02;3.88;;;1.48;;
39698;SDS011;25372;50.582;12.250;2023-02-03T01:58:25;2.20;;;1.52;;
39698;SDS011;25372;50.582;12.250;2023-02-03T02:08:51;2.65;;;1.30;;
39698;SDS011;25372;50.582;12.250;2023-02-03T02:19:23;6.23;;;1.53;;
39698;SDS011;25372;50.582;12.250;2023-02-03T02:30:10;5.50;;;1.83;;
39698;SDS011;25372;50.582;12.250;2023-02-03T02:40:50;1.75;;;1.35;;
39698;SDS011;25372;50.582;12.250;2023-02-03T02:51:14;6.63;;;1.52;;
39698;SDS011;25372;50.582;12.250;2023-02-03T03:01:37;0.88;;;0.88;;
39698;SDS011;25372;50.582;12.250;2023-02-03T03:12:03;1.35;;;1.05;;
39698;SDS011;25372;50.582;12.250;2023-02-03T03:22:31;1.30;;;1.05;;
39698;SDS011;25372;50.582;12.250;2023-02-03T03:32:54;1.95;;;1.45;;
39698;SDS011;25372;50.582;12.250;2023-02-03T03:43:18;5.60;;;2.03;;
39698;SDS011;25372;50.582;12.250;2023-02-03T03:53:42;3.33;;;2.17;;
39698;SDS011;25372;50.582;12.250;2023-02-03T04:04:08;4.85;;;2.67;;
39698;SDS011;25372;50.582;12.250;2023-02-03T04:14:31;3.33;;;1.70;;
39698;SDS011;25372;50.582;12.250;2023-02-03T04:24:55;5.10;;;2.13;;
39698;SDS011;25372;50.582;12.250;2023-02-03T04:35:17;4.03;;;2.13;;
39698;SDS011;25372;50.582;12.250;2023-02-03T04:45:39;4.53;;;2.72;;
39698;SDS011;25372;50.582;12.250;2023-02-03T04:56:00;2.65;;;2.00;;
39698;SDS011;25372;50.582;12.250;2023-02-03T05:06:23;6.63;;;2.65;;
39698;SDS011;25372;50.582;12.250;2023-02-03T05:16:44;4.10;;;2.10;;
39698;SDS011;25372;50.582;12.250;2023-02-03T05:27:06;9.07;;;3.40;;
39698;SDS011;25372;50.582;12.250;2023-02-03T05:37:27;5.32;;;2.55;;
39698;SDS011;25372;50.582;12.250;2023-02-03T05:47:49;8.70;;;3.20;;
39698;SDS011;25372;50.582;12.250;2023-02-03T05:58:10;9.50;;;3.80;;
39698;SDS011;25372;50.582;12.250;2023-02-03T06:08:32;4.63;;;2.75;;
39698;SDS011;25372;50.582;12.250;2023-02-03T06:18:53;11.90;;;3.75;;
39698;SDS011;25372;50.582;12.250;2023-02-03T06:29:18;7.10;;;3.50;;
39698;SDS011;25372;50.582;12.250;2023-02-03T06:39:39;7.63;;;3.30;;
39698;SDS011;25372;50.582;12.250;2023-02-03T06:50:01;4.95;;;2.35;;
39698;SDS011;25372;50.582;12.250;2023-02-03T07:00:22;4.50;;;2.63;;
39698;SDS011;25372;50.582;12.250;2023-02-03T07:10:44;5.82;;;2.70;;
39698;SDS011;25372;50.582;12.250;2023-02-03T07:21:05;7.03;;;2.90;;
39698;SDS011;25372;50.582;12.250;2023-02-03T07:31:28;3.08;;;1.85;;
39698;SDS011;25372;50.582;12.250;2023-02-03T07:41:48;5.45;;;2.35;;
39698;SDS011;25372;50.582;12.250;2023-02-03T07:52:10;4.55;;;2.70;;
39698;SDS011;25372;50.582;12.250;2023-02-03T08:02:31;5.63;;;3.28;;
39698;SDS011;25372;50.582;12.250;2023-02-03T08:12:53;3.25;;;1.85;;
39698;SDS011;25372;50.582;12.250;2023-02-03T08:23:14;4.28;;;1.88;;
39698;SDS011;25372;50.582;12.250;2023-02-03T08:33:36;4.60;;;2.15;;
39698;SDS011;25372;50.582;12.250;2023-02-03T08:43:57;3.80;;;1.85;;
39698;SDS011;25372;50.582;12.250;2023-02-03T08:54:19;5.07;;;2.53;;
39698;SDS011;25372;50.582;12.250;2023-02-03T09:04:40;5.30;;;1.75;;
39698;SDS011;25372;50.582;12.250;2023-02-03T09:15:02;2.05;;;1.67;;
39698;SDS011;25372;50.582;12.250;2023-02-03T09:25:23;3.58;;;1.70;;
39698;SDS011;25372;50.582;12.250;2023-02-03T09:35:51;4.57;;;1.88;;
39698;SDS011;25372;50.582;12.250;2023-02-03T09:46:14;2.22;;;1.83;;
39698;SDS011;25372;50.582;12.250;2023-02-03T09:56:40;3.00;;;1.90;;
39698;SDS011;25372;50.582;12.250;2023-02-03T10:07:09;3.60;;;2.45;;
39698;SDS011;25372;50.582;12.250;2023-02-03T10:17:36;3.58;;;2.75;;
39698;SDS011;25372;50.582;12.250;2023-02-03T10:28:02;3.67;;;2.33;;
39698;SDS011;25372;50.582;12.250;2023-02-03T10:38:37;2.90;;;2.30;;
39698;SDS011;25372;50.582;12.250;2023-02-03T10:49:05;1.85;;;1.58;;
39698;SDS011;25372;50.582;12.250;2023-02-03T10:59:29;2.20;;;1.98;;
39698;SDS011;25372;50.582;12.250;2023-02-03T11:09:51;3.97;;;2.28;;
39698;SDS011;25372;50.582;12.250;2023-02-03T11:20:14;2.83;;;1.60;;
39698;SDS011;25372;50.582;12.250;2023-02-03T11:30:36;3.40;;;1.92;;
39698;SDS011;25372;50.582;12.250;2023-02-03T11:40:59;9.68;;;1.50;;
39698;SDS011;25372;50.582;12.250;2023-02-03T11:51:22;2.42;;;1.67;;
39698;SDS011;25372;50.582;12.250;2023-02-03T12:12:51;1.73;;;1.15;;
39698;SDS011;25372;50.582;12.250;2023-02-03T12:23:24;1.42;;;1.30;;
39698;SDS011;25372;50.582;12.250;2023-02-03T12:33:56;0.70;;;0.70;;
39698;SDS011;25372;50.582;12.250;2023-02-03T12:44:28;1.77;;;0.90;;
39698;SDS011;25372;50.582;12.250;2023-02-03T12:54:53;1.77;;;0.98;;
39698;SDS011;25372;50.582;12.250;2023-02-03T13:05:22;1.50;;;1.30;;
39698;SDS011;25372;50.582;12.250;2023-02-03T13:15:47;1.95;;;1.48;;
39698;SDS011;25372;50.582;12.250;2023-02-03T13:48:09;6.95;;;1.15;;
39698;SDS011;25372;50.582;12.250;2023-02-03T13:58:36;0.68;;;0.68;;
39698;SDS011;25372;50.582;12.250;2023-02-03T14:08:59;3.60;;;1.13;;
39698;SDS011;25372;50.582;12.250;2023-02-03T14:30:16;1.67;;;1.05;;
39698;SDS011;25372;50.582;12.250;2023-02-03T14:40:39;5.18;;;0.95;;
39698;SDS011;25372;50.582;12.250;2023-02-03T14:51:10;1.15;;;0.80;;
39698;SDS011;25372;50.582;12.250;2023-02-03T15:12:34;1.13;;;1.00;;
39698;SDS011;25372;50.582;12.250;2023-02-03T15:22:57;4.85;;;1.30;;
39698;SDS011;25372;50.582;12.250;2023-02-03T15:33:20;6.28;;;1.13;;
39698;SDS011;25372;50.582;12.250;2023-02-03T15:43:41;1.73;;;1.00;;
39698;SDS011;25372;50.582;12.250;2023-02-03T15:54:06;2.00;;;1.07;;
39698;SDS011;25372;50.582;12.250;2023-02-03T16:04:35;4.95;;;1.70;;
39698;SDS011;25372;50.582;12.250;2023-02-03T16:14:57;3.25;;;1.30;;
39698;SDS011;25372;50.582;12.250;2023-02-03T16:25:22;6.18;;;1.38;;
39698;SDS011;25372;50.582;12.250;2023-02-03T16:35:46;4.77;;;1.10;;
39698;SDS011;25372;50.582;12.250;2023-02-03T16:46:25;8.50;;;1.50;;
39698;SDS011;25372;50.582;12.250;2023-02-03T16:57:05;8.88;;;2.63;;
39698;SDS011;25372;50.582;12.250;2023-02-03T17:07:26;6.50;;;1.52;;
39698;SDS011;25372;50.582;12.250;2023-02-03T17:17:48;4.38;;;1.20;;
39698;SDS011;25372;50.582;12.250;2023-02-03T17:28:09;6.68;;;2.40;;
39698;SDS011;25372;50.582;12.250;2023-02-03T17:38:36;3.60;;;1.13;;
39698;SDS011;25372;50.582;12.250;2023-02-03T17:48:58;3.17;;;1.33;;
39698;SDS011;25372;50.582;12.250;2023-02-03T17:59:20;4.88;;;1.60;;
39698;SDS011;25372;50.582;12.250;2023-02-03T18:09:41;3.30;;;1.35;;
39698;SDS011;25372;50.582;12.250;2023-02-03T18:20:03;2.33;;;0.85;;
39698;SDS011;25372;50.582;12.250;2023-02-03T18:30:25;1.63;;;0.77;;
39698;SDS011;25372;50.582;12.250;2023-02-03T18:40:48;8.25;;;2.35;;
39698;SDS011;25372;50.582;12.250;2023-02-03T18:51:10;9.20;;;1.17;;
39698;SDS011;25372;50.582;12.250;2023-02-03T19:01:33;4.25;;;2.60;;
39698;SDS011;25372;50.582;12.250;2023-02-03T19:11:55;8.05;;;1.52;;
39698;SDS011;25372;50.582;12.250;2023-02-03T19:22:18;7.95;;;1.73;;
39698;SDS011;25372;50.582;12.250;2023-02-03T19:32:38;3.95;;;1.17;;
39698;SDS011;25372;50.582;12.250;2023-02-03T19:43:00;2.92;;;1.10;;
39698;SDS011;25372;50.582;12.250;2023-02-03T19:53:22;6.15;;;2.35;;
39698;SDS011;25372;50.582;12.250;2023-02-03T20:03:44;2.03;;;1.27;;
39698;SDS011;25372;50.582;12.250;2023-02-03T20:14:05;5.38;;;1.70;;
39698;SDS011;25372;50.582;12.250;2023-02-03T20:24:27;3.97;;;1.30;;
39698;SDS011;25372;50.582;12.250;2023-02-03T20:34:48;3.33;;;1.23;;
39698;SDS011;25372;50.582;12.250;2023-02-03T20:45:12;4.10;;;1.50;;
39698;SDS011;25372;50.582;12.250;2023-02-03T20:55:33;4.53;;;1.25;;
39698;SDS011;25372;50.582;12.250;2023-02-03T21:05:56;4.88;;;1.90;;
39698;SDS011;25372;50.582;12.250;2023-02-03T21:16:17;2.97;;;1.20;;
39698;SDS011;25372;50.582;12.250;2023-02-03T21:26:42;10.18;;;2.30;;
39698;SDS011;25372;50.582;12.250;2023-02-03T21:37:06;3.38;;;1.35;;
39698;SDS011;25372;50.582;12.250;2023-02-03T21:47:42;6.05;;;2.28;;
39698;SDS011;25372;50.582;12.250;2023-02-03T21:58:04;5.60;;;1.60;;
39698;SDS011;25372;50.582;12.250;2023-02-03T22:08:42;5.47;;;1.60;;
39698;SDS011;25372;50.582;12.250;2023-02-03T22:19:04;2.07;;;1.03;;
39698;SDS011;25372;50.582;12.250;2023-02-03T22:29:26;6.60;;;2.28;;
39698;SDS011;25372;50.582;12.250;2023-02-03T22:39:47;7.25;;;1.55;;
39698;SDS011;25372;50.582;12.250;2023-02-03T22:50:10;3.60;;;1.17;;
39698;SDS011;25372;50.582;12.250;2023-02-03T23:00:32;2.85;;;2.25;;
39698;SDS011;25372;50.582;12.250;2023-02-03T23:10:55;1.08;;;1.00;;
39698;SDS011;25372;50.582;12.250;2023-02-03T23:21:15;2.67;;;1.00;;
39698;SDS011;25372;50.582;12.250;2023-02-03T23:31:38;0.70;;;0.70;;
39698;SDS011;25372;50.582;12.250;2023-02-03T23:41:58;1.50;;;0.77;;
39698;SDS011;25372;50.582;12.250;2023-02-03T23:52:21;0.77;;;0.77;;
